Time;durP1;ratioP1;P1;durP2;ratioP2;P2;SDS_P1;SDS_P2;PMS_P1;PMS_P2;Temp;Humidity;BMP_temperature;BMP_pressure;BME280_temperature;BME280_humidity;BME280_pressure;Samples;Min_cycle;Max_cycle;Signal;HPM_P1;HPM_P2
2022/09/15 00:00:22;;;;;;;18.23;10.05;;;16.90;99.90;;;;;;4933790;29;20027;-96
2022/09/15 00:02:51;;;;;;;14.77;10.60;;;16.90;99.90;;;;;;4905594;29;20029;-96
2022/09/15 00:05:20;;;;;;;15.38;10.65;;;16.90;99.90;;;;;;4900991;29;20036;-95
2022/09/15 00:07:53;;;;;;;15.20;11.82;;;16.90;99.90;;;;;;4927463;29;20028;-95
2022/09/15 00:10:21;;;;;;;16.42;10.05;;;16.90;99.90;;;;;;4892254;29;20493;-94
2022/09/15 00:12:52;;;;;;;15.40;10.82;;;16.90;99.90;;;;;;4907665;29;20047;-96
2022/09/15 00:15:18;;;;;;;14.82;10.70;;;16.90;99.90;;;;;;4898856;29;20035;-96
2022/09/15 00:17:51;;;;;;;15.98;10.95;;;16.80;99.90;;;;;;4913956;29;20028;-95
2022/09/15 00:20:24;;;;;;;15.93;10.48;;;16.80;99.90;;;;;;4911623;29;20040;-96
2022/09/15 00:22:50;;;;;;;16.13;11.43;;;16.80;99.90;;;;;;4903049;29;20028;-95
2022/09/15 00:25:16;;;;;;;17.13;10.85;;;16.70;99.90;;;;;;4923115;29;20064;-96
2022/09/15 00:27:42;;;;;;;16.35;11.13;;;16.70;99.90;;;;;;4909774;29;20070;-96
2022/09/15 00:30:08;;;;;;;19.00;11.68;;;16.70;99.90;;;;;;4909793;29;20036;-96
2022/09/15 00:32:38;;;;;;;16.10;11.40;;;16.70;99.90;;;;;;4905650;29;20028;-95
2022/09/15 00:35:04;;;;;;;17.15;10.85;;;16.60;99.90;;;;;;4913648;29;20035;-95
2022/09/15 00:37:30;;;;;;;16.35;11.43;;;16.60;99.90;;;;;;4893023;29;20024;-94
2022/09/15 00:39:56;;;;;;;16.65;11.32;;;16.60;99.90;;;;;;4933565;29;20073;-95
2022/09/15 00:42:22;;;;;;;18.08;11.98;;;16.60;99.90;;;;;;4929050;29;20032;-96
2022/09/15 00:44:56;;;;;;;17.88;11.07;;;16.60;99.90;;;;;;4914051;29;20075;-96
2022/09/15 00:47:35;;;;;;;14.27;11.25;;;16.60;99.90;;;;;;4907274;29;20032;-96
2022/09/15 00:50:13;;;;;;;13.82;10.18;;;16.60;99.90;;;;;;4909400;29;20040;-96
2022/09/15 00:52:54;;;;;;;16.75;11.27;;;16.70;99.90;;;;;;4908804;29;20098;-96
2022/09/15 00:55:26;;;;;;;15.85;11.05;;;16.70;99.90;;;;;;4912119;29;20028;-96
2022/09/15 00:58:02;;;;;;;16.52;11.48;;;16.70;99.90;;;;;;4925123;29;20096;-96
2022/09/15 01:00:29;;;;;;;17.83;11.82;;;16.70;99.90;;;;;;4911476;29;20024;-96
2022/09/15 01:03:00;;;;;;;15.68;11.07;;;16.70;99.90;;;;;;4913596;29;20017;-94
2022/09/15 01:05:40;;;;;;;16.42;11.10;;;16.70;99.90;;;;;;4924281;29;20058;-96
2022/09/15 01:08:12;;;;;;;15.63;10.95;;;16.80;99.90;;;;;;4918179;29;20185;-95
2022/09/15 01:10:40;;;;;;;15.75;10.32;;;16.80;99.90;;;;;;4918948;29;20043;-96
2022/09/15 01:13:08;;;;;;;21.33;11.48;;;16.80;99.90;;;;;;4912736;29;20028;-96
2022/09/15 01:15:55;;;;;;;13.90;10.70;;;16.80;99.90;;;;;;4915529;29;20015;-96
2022/09/15 01:18:38;;;;;;;15.00;10.35;;;16.80;99.90;;;;;;4922875;29;20015;-95
2022/09/15 01:21:19;;;;;;;15.63;10.57;;;16.80;99.90;;;;;;4923256;29;20028;-96
2022/09/15 01:23:59;;;;;;;17.27;11.65;;;16.80;99.90;;;;;;4914640;29;20084;-96
2022/09/15 01:26:32;;;;;;;16.73;10.13;;;16.80;99.90;;;;;;4926930;29;20032;-96
2022/09/15 01:29:07;;;;;;;14.25;10.68;;;16.80;99.90;;;;;;4921423;29;20043;-94
2022/09/15 01:34:44;;;;;;;18.42;10.57;;;16.80;99.90;;;;;;4932305;29;20096;-96
2022/09/15 01:37:21;;;;;;;14.98;9.30;;;16.80;99.90;;;;;;4912930;29;20031;-96
2022/09/15 01:40:12;;;;;;;;;;;;;;;;;;;;;
2022/09/15 01:42:49;;;;;;;14.43;9.15;;;16.80;99.90;;;;;;5025870;23;20060;-93
2022/09/15 01:45:31;;;;;;;14.38;9.93;;;16.80;99.90;;;;;;4534628;23;20220;-88
2022/09/15 01:48:13;;;;;;;12.07;9.10;;;16.80;99.90;;;;;;4933220;24;20044;-92
2022/09/15 01:50:59;;;;;;;12.38;9.32;;;16.90;99.90;;;;;;4899359;29;20046;-96
2022/09/15 01:53:30;;;;;;;18.30;10.05;;;16.90;99.90;;;;;;4931978;29;20019;-96
2022/09/15 01:56:13;;;;;;;12.82;9.18;;;16.80;99.90;;;;;;4918514;29;20028;-96
2022/09/15 01:58:42;;;;;;;12.95;9.60;;;16.80;99.90;;;;;;4923400;29;20092;-96
2022/09/15 02:01:16;;;;;;;16.63;10.23;;;16.80;99.90;;;;;;4934898;29;20012;-96
2022/09/15 02:03:59;;;;;;;12.18;9.30;;;16.80;99.90;;;;;;4937168;29;20095;-96
2022/09/15 02:06:43;;;;;;;15.68;9.77;;;16.80;99.90;;;;;;4905471;29;20044;-96
2022/09/15 02:09:16;;;;;;;14.27;9.40;;;16.80;99.90;;;;;;4934489;29;20159;-96
2022/09/15 02:12:18;;;;;;;15.05;10.45;;;16.80;99.90;;;;;;4909377;29;20104;-96
2022/09/15 02:15:10;;;;;;;12.43;8.98;;;16.90;99.90;;;;;;4909755;29;20020;-96
2022/09/15 02:17:49;;;;;;;13.40;9.43;;;16.80;99.90;;;;;;4932139;29;20032;-96
2022/09/15 02:20:56;;;;;;;14.80;10.18;;;16.80;99.90;;;;;;4913590;29;20024;-96
2022/09/15 02:23:36;;;;;;;12.95;9.43;;;16.80;99.90;;;;;;4931296;29;20039;-96
2022/09/15 02:31:26;;;;;;;14.73;9.93;;;16.80;99.90;;;;;;5855695;23;20262;-93
2022/09/15 02:34:05;;;;;;;14.90;9.68;;;16.80;99.90;;;;;;4939371;29;20055;-96
2022/09/15 02:36:49;;;;;;;13.25;9.68;;;16.80;99.90;;;;;;4938595;29;20081;-96
2022/09/15 02:39:21;;;;;;;13.38;8.48;;;16.80;99.90;;;;;;4925501;29;20017;-94
2022/09/15 02:41:59;;;;;;;13.55;8.95;;;16.80;99.90;;;;;;4939001;29;20029;-96
2022/09/15 02:44:35;;;;;;;;;;;;;;;;;;;;;
2022/09/15 02:47:09;;;;;;;13.70;9.13;;;16.80;99.90;;;;;;4915234;29;20127;-96
2022/09/15 02:49:35;;;;;;;11.57;8.70;;;16.80;99.90;;;;;;4929826;29;20037;-96
2022/09/15 02:52:01;;;;;;;13.27;9.27;;;16.80;99.90;;;;;;4930891;29;20059;-96
2022/09/15 02:54:29;;;;;;;12.85;9.13;;;16.80;99.90;;;;;;4963370;23;20028;-94
2022/09/15 02:56:55;;;;;;;17.42;8.93;;;16.80;99.90;;;;;;4913359;29;20050;-96
2022/09/15 02:59:21;;;;;;;14.48;9.18;;;16.80;99.90;;;;;;4916611;29;20099;-96
2022/09/15 03:01:50;;;;;;;13.55;8.68;;;16.70;99.90;;;;;;4925717;29;20004;-96
2022/09/15 03:04:16;;;;;;;14.77;9.35;;;16.70;99.90;;;;;;4887255;29;20035;-96
2022/09/15 03:06:42;;;;;;;13.23;8.68;;;16.70;99.90;;;;;;4911673;29;20035;-96
2022/09/15 03:09:08;;;;;;;12.13;8.45;;;16.70;99.90;;;;;;4910445;29;20027;-96
2022/09/15 03:11:35;;;;;;;10.77;7.97;;;16.70;99.90;;;;;;4918022;29;20024;-96
2022/09/15 03:14:07;;;;;;;12.55;8.40;;;16.70;99.90;;;;;;4922516;29;20028;-95
2022/09/15 03:16:36;;;;;;;12.30;7.60;;;16.70;99.90;;;;;;4919454;29;20048;-96
2022/09/15 03:19:02;;;;;;;9.55;8.02;;;16.70;99.90;;;;;;4894896;29;20137;-95
2022/09/15 03:21:28;;;;;;;10.20;7.68;;;16.70;99.90;;;;;;4909219;29;20027;-96
2022/09/15 03:24:08;;;;;;;13.43;8.10;;;16.70;99.90;;;;;;4908716;29;20039;-96
2022/09/15 03:26:34;;;;;;;12.20;7.85;;;16.70;99.90;;;;;;4901081;29;20052;-96
2022/09/15 03:29:04;;;;;;;10.90;7.70;;;16.70;99.90;;;;;;4918677;29;20027;-96
2022/09/15 03:31:39;;;;;;;11.98;7.63;;;16.70;99.90;;;;;;4932316;29;20028;-96
2022/09/15 03:34:08;;;;;;;10.98;8.07;;;16.70;99.90;;;;;;4902741;29;20110;-96
2022/09/15 03:36:34;;;;;;;12.57;7.68;;;16.70;99.90;;;;;;4914608;29;20056;-95
2022/09/15 03:39:00;;;;;;;11.05;7.75;;;16.70;99.90;;;;;;4911406;29;20024;-95
2022/09/15 03:41:26;;;;;;;11.40;8.30;;;16.60;99.90;;;;;;4912181;29;20028;-95
2022/09/15 03:43:58;;;;;;;9.65;7.57;;;16.60;99.90;;;;;;4929932;29;20028;-95
2022/09/15 03:46:29;;;;;;;11.07;7.50;;;16.60;99.90;;;;;;4909949;29;20032;-96
2022/09/15 03:48:55;;;;;;;;;;;16.60;99.90;;;;;;4912408;29;20024;-95
2022/09/15 03:51:21;;;;;;;10.35;7.00;;;16.60;99.90;;;;;;4908732;29;19907;-95
2022/09/15 03:53:47;;;;;;;10.20;6.93;;;16.60;99.90;;;;;;4910121;29;20032;-96
2022/09/15 03:56:27;;;;;;;10.25;7.20;;;16.60;99.90;;;;;;4910030;29;20132;-94
2022/09/15 03:58:56;;;;;;;9.32;6.85;;;16.60;99.90;;;;;;4937108;29;20095;-96
2022/09/15 04:01:22;;;;;;;10.65;6.97;;;16.60;99.90;;;;;;4919491;29;20103;-96
2022/09/15 04:03:49;;;;;;;11.40;6.57;;;16.60;99.90;;;;;;4934885;29;20027;-96
2022/09/15 04:06:18;;;;;;;9.98;6.93;;;16.50;99.90;;;;;;4931139;29;20043;-96
2022/09/15 04:08:49;;;;;;;10.43;6.28;;;16.60;99.90;;;;;;4944501;29;20024;-96
2022/09/15 04:11:26;;;;;;;12.13;6.90;;;16.50;99.90;;;;;;4934512;29;20031;-96
2022/09/15 04:13:54;;;;;;;9.88;6.65;;;16.60;99.90;;;;;;4922987;29;20032;-96
2022/09/15 04:16:41;;;;;;;13.60;6.63;;;16.60;99.90;;;;;;5003674;23;20051;-95
2022/09/15 04:19:11;;;;;;;9.15;6.30;;;16.60;99.90;;;;;;4884906;29;20013;-95
2022/09/15 04:21:39;;;;;;;9.73;6.40;;;16.50;99.90;;;;;;4885306;29;20077;-96
2022/09/15 04:24:11;;;;;;;14.35;6.40;;;16.50;99.90;;;;;;4880191;29;20457;-96
2022/09/15 04:26:39;;;;;;;9.10;6.00;;;16.60;99.90;;;;;;4879161;29;20044;-96
2022/09/15 04:29:14;;;;;;;10.50;5.95;;;16.50;99.90;;;;;;4884476;29;20037;-96
2022/09/15 04:31:40;;;;;;;11.15;5.88;;;16.50;99.90;;;;;;4887089;29;20077;-96
2022/09/15 04:34:06;;;;;;;10.18;6.30;;;16.50;99.90;;;;;;4941148;23;20069;-96
2022/09/15 04:36:34;;;;;;;9.55;5.88;;;16.50;99.90;;;;;;4914381;29;20037;-96
2022/09/15 04:39:04;;;;;;;9.40;6.10;;;16.50;99.90;;;;;;4863657;29;20013;-96
2022/09/15 04:41:37;;;;;;;10.65;5.85;;;16.50;99.90;;;;;;4883098;29;20080;-96
2022/09/15 04:44:08;;;;;;;9.43;5.50;;;16.60;99.90;;;;;;4900865;29;20097;-96
2022/09/15 04:46:41;;;;;;;11.60;6.13;;;16.50;99.90;;;;;;4880954;29;20045;-96
2022/09/15 04:49:18;;;;;;;10.55;6.00;;;16.50;99.90;;;;;;4870576;29;20033;-96
2022/09/15 04:51:54;;;;;;;13.90;6.43;;;16.50;99.90;;;;;;4880873;29;20092;-96
2022/09/15 04:54:20;;;;;;;9.90;6.10;;;16.50;99.90;;;;;;4883965;29;20031;-96
2022/09/15 04:56:49;;;;;;;9.70;6.40;;;16.50;99.90;;;;;;4882710;29;20055;-96
2022/09/15 04:59:29;;;;;;;10.93;6.47;;;16.50;99.90;;;;;;4866752;29;20019;-96
2022/09/15 05:01:58;;;;;;;8.77;5.43;;;16.50;99.90;;;;;;4884485;29;20099;-96
2022/09/15 05:04:36;;;;;;;9.43;6.03;;;16.50;99.90;;;;;;4898484;29;20048;-96
2022/09/15 05:07:02;;;;;;;9.70;5.70;;;16.50;99.90;;;;;;4893894;24;20062;-95
2022/09/15 05:10:02;;;;;;;9.33;6.70;;;16.50;99.90;;;;;;5181830;23;20064;31
2022/09/15 05:12:33;;;;;;;9.52;5.70;;;16.50;99.90;;;;;;4880681;29;20064;-95
2022/09/15 05:15:06;;;;;;;11.10;5.90;;;16.50;99.90;;;;;;4850875;29;20054;-96
2022/09/15 05:20:21;;;;;;;12.68;5.95;;;16.50;99.90;;;;;;5348500;23;20056;-96
2022/09/15 05:23:08;;;;;;;9.73;5.80;;;16.50;99.90;;;;;;4918457;29;20119;-95
2022/09/15 05:25:40;;;;;;;11.02;5.40;;;16.50;99.90;;;;;;4901651;29;20040;-96
2022/09/15 05:28:08;;;;;;;;;;;16.50;99.90;;;;;;4915079;29;20028;-96
2022/09/15 05:30:44;;;;;;;9.98;5.70;;;16.50;99.90;;;;;;4917114;29;19942;-96
2022/09/15 05:33:17;;;;;;;8.93;4.78;;;16.50;99.90;;;;;;4917797;29;20024;-96
2022/09/15 05:36:19;;;;;;;;;;;;;;;;;;;;;
2022/09/15 05:38:55;;;;;;;7.80;4.60;;;16.50;99.90;;;;;;5692872;23;20540;-95
2022/09/15 05:41:32;;;;;;;10.45;4.55;;;16.50;99.90;;;;;;4937677;29;20120;-96
2022/09/15 05:44:00;;;;;;;7.22;3.92;;;16.50;99.90;;;;;;4936722;29;20031;-96
2022/09/15 05:46:41;;;;;;;;;;;;;;;;;;;;;
2022/09/15 05:49:12;;;;;;;7.60;3.75;;;16.50;99.90;;;;;;4922417;29;20075;-96
2022/09/15 05:51:41;;;;;;;6.88;3.72;;;16.50;99.90;;;;;;4917460;29;20091;-96
2022/09/15 05:54:07;;;;;;;6.63;3.58;;;16.50;99.90;;;;;;4935040;29;20024;-96
2022/09/15 05:56:48;;;;;;;;;;;;;;;;;;;;;
2022/09/15 05:59:37;;;;;;;;;;;;;;;;;;;;;
2022/09/15 06:02:11;;;;;;;8.60;3.63;;;16.50;99.90;;;;;;4923016;29;20067;-96
2022/09/15 06:04:37;;;;;;;7.95;3.50;;;16.50;99.90;;;;;;4934922;29;20024;-96
2022/09/15 06:07:09;;;;;;;7.72;3.20;;;16.50;99.90;;;;;;5053911;23;20020;-95
2022/09/15 06:09:35;;;;;;;9.10;3.22;;;16.50;99.90;;;;;;4908163;29;20013;-96
2022/09/15 06:18:17;;;;;;;8.05;2.92;;;16.50;99.90;;;;;;4944747;23;20068;31
2022/09/15 06:21:01;;;;;;;;;;;16.50;99.90;;;;;;5194746;23;20068;31
2022/09/15 06:23:39;;;;;;;5.75;2.75;;;16.50;99.90;;;;;;5112545;23;19927;-91
2022/09/15 06:26:27;;;;;;;8.75;2.88;;;16.50;99.90;;;;;;4922592;29;20040;-96
2022/09/15 06:29:16;;;;;;;;;;;;;;;;;;;;;
2022/09/15 06:42:16;;;;;;;6.80;2.95;;;16.50;99.90;;;;;;4941493;28;20047;-96
2022/09/15 06:44:45;;;;;;;5.65;3.10;;;16.60;99.90;;;;;;4912363;28;20032;-95
2022/09/15 06:47:16;;;;;;;6.82;2.97;;;16.60;99.90;;;;;;4926295;29;20044;-96
2022/09/15 06:49:42;;;;;;;5.32;2.80;;;16.60;99.90;;;;;;4926210;29;20044;-95
2022/09/15 06:52:33;;;;;;;5.25;3.00;;;16.60;99.90;;;;;;4925911;29;20024;-96
2022/09/15 06:55:02;;;;;;;7.45;3.08;;;16.60;99.90;;;;;;5103098;23;20061;-96
2022/09/15 07:00:56;;;;;;;8.43;2.90;;;16.70;99.90;;;;;;5791307;23;20269;-93
2022/09/15 07:06:53;;;;;;;5.07;2.65;;;16.70;99.90;;;;;;5226526;23;20119;-96
2022/09/15 07:12:18;;;;;;;;;;;;;;;;;;;;;
2022/09/15 07:14:52;;;;;;;6.47;2.50;;;16.70;99.90;;;;;;4942716;29;20064;-96
2022/09/15 07:17:39;;;;;;;7.35;2.85;;;16.70;99.90;;;;;;4912209;29;20031;-96
2022/09/15 07:28:16;;;;;;;6.13;2.45;;;16.80;99.90;;;;;;5234319;23;20097;-96
2022/09/15 07:31:06;;;;;;;16.08;3.00;;;16.70;99.90;;;;;;5109393;23;20049;-95
2022/09/15 07:34:02;;;;;;;5.22;2.10;;;16.80;99.90;;;;;;4904985;29;20033;-96
2022/09/15 07:36:50;;;;;;;;;;;;;;;;;;;;;
2022/09/15 07:39:26;;;;;;;4.90;2.08;;;16.80;99.90;;;;;;4876371;29;20040;-96
2022/09/15 07:45:25;;;;;;;7.25;2.13;;;16.80;99.90;;;;;;5063246;23;20075;-96
2022/09/15 07:48:06;;;;;;;5.57;1.77;;;16.90;99.90;;;;;;4922888;29;20048;-93
2022/09/15 07:56:43;;;;;;;4.00;1.60;;;16.90;99.90;;;;;;5481206;23;20056;-95
2022/09/15 07:59:34;;;;;;;4.07;1.52;;;17.00;99.90;;;;;;4926149;29;20107;-96
2022/09/15 08:02:34;;;;;;;5.43;1.40;;;17.00;99.90;;;;;;4908900;29;20024;-96
2022/09/15 08:05:16;;;;;;;7.35;1.50;;;17.00;99.90;;;;;;4910410;29;20020;-95
2022/09/15 08:07:45;;;;;;;7.18;2.20;;;17.10;99.90;;;;;;4923990;29;20024;-95
2022/09/15 08:10:23;;;;;;;6.25;1.38;;;17.10;99.90;;;;;;4908184;29;20040;-95
2022/09/15 08:12:59;;;;;;;4.90;1.10;;;17.10;99.90;;;;;;4941105;29;20053;-96
2022/09/15 08:15:38;;;;;;;6.60;1.80;;;17.10;99.90;;;;;;4924181;29;20032;-96
2022/09/15 08:18:32;;;;;;;6.63;1.50;;;17.10;99.90;;;;;;4909015;29;20060;-96
2022/09/15 08:21:10;;;;;;;5.72;1.20;;;17.20;99.90;;;;;;4916149;29;20032;-96
2022/09/15 08:23:54;;;;;;;7.55;1.58;;;17.10;99.90;;;;;;4922612;29;20040;-96
2022/09/15 08:26:27;;;;;;;8.00;1.70;;;17.20;99.90;;;;;;4923201;29;20067;-96
2022/09/15 08:29:05;;;;;;;7.13;1.80;;;17.20;99.90;;;;;;4922468;29;20043;-96
2022/09/15 08:31:51;;;;;;;;;;;;;;;;;;;;;
2022/09/15 08:34:17;;;;;;;8.68;2.30;;;17.20;99.90;;;;;;4939269;29;20063;-96
2022/09/15 08:37:01;;;;;;;7.32;1.33;;;17.20;99.90;;;;;;4921028;29;20055;-95
2022/09/15 08:39:35;;;;;;;5.80;1.45;;;17.20;99.90;;;;;;4903973;29;20029;-96
2022/09/15 08:42:20;;;;;;;6.15;1.55;;;17.20;99.90;;;;;;4985781;23;20109;-96
2022/09/15 08:45:04;;;;;;;6.03;1.20;;;17.30;99.90;;;;;;4904089;29;20033;-95
2022/09/15 08:48:07;;;;;;;9.45;1.70;;;17.30;99.90;;;;;;4932070;29;20043;-96
2022/09/15 08:50:58;;;;;;;;;;;;;;;;;;;;;
2022/09/15 08:53:36;;;;;;;4.57;1.42;;;17.30;99.90;;;;;;4938501;29;20047;-96
2022/09/15 08:56:38;;;;;;;6.03;1.40;;;17.40;99.90;;;;;;4920112;29;20020;-96
2022/09/15 08:59:07;;;;;;;4.60;1.40;;;17.40;99.90;;;;;;4916642;29;20528;-96
2022/09/15 09:02:03;;;;;;;4.47;1.35;;;17.40;99.90;;;;;;4919909;29;20043;-96
2022/09/15 09:05:00;;;;;;;3.90;1.20;;;17.40;99.90;;;;;;4921712;29;20014;-96
2022/09/15 09:08:00;;;;;;;;;;;;;;;;;;;;;
2022/09/15 09:10:54;;;;;;;4.70;1.42;;;17.50;99.90;;;;;;4941361;29;20020;-96
2022/09/15 09:14:04;;;;;;;7.57;1.60;;;17.50;99.90;;;;;;5090109;23;20093;-96
2022/09/15 09:16:49;;;;;;;4.53;1.00;;;17.50;99.90;;;;;;4902903;29;20024;-96
2022/09/15 09:19:43;;;;;;;;;;;;;;;;;;;;;
2022/09/15 09:22:52;;;;;;;4.82;0.93;;;17.60;99.90;;;;;;4918282;29;20067;-96
2022/09/15 09:25:54;;;;;;;;;;;;;;;;;;;;;
2022/09/15 09:28:44;;;;;;;5.47;1.08;;;17.60;99.90;;;;;;4920006;29;20064;-95
2022/09/15 09:31:23;;;;;;;8.93;1.30;;;17.60;99.90;;;;;;4903667;29;20020;-96
2022/09/15 09:34:21;;;;;;;8.00;1.55;;;17.70;99.90;;;;;;5140167;23;20040;-94
2022/09/15 09:39:52;;;;;;;3.60;0.90;;;17.70;99.90;;;;;;5601095;23;20060;-95
2022/09/15 09:43:10;;;;;;;6.45;1.10;;;17.70;99.90;;;;;;4938517;28;20024;-96
2022/09/15 09:45:59;;;;;;;5.65;1.10;;;17.80;99.90;;;;;;4913832;28;20020;-96
2022/09/15 09:54:23;;;;;;;3.05;0.95;;;17.90;99.90;;;;;;5808430;23;20063;-95
2022/09/15 09:56:59;;;;;;;8.45;2.10;;;17.90;99.90;;;;;;5457469;23;20079;-92
2022/09/15 09:59:48;;;;;;;4.63;0.82;;;17.90;99.90;;;;;;4924032;29;20052;-96
2022/09/15 10:02:18;;;;;;;4.75;1.35;;;17.90;99.90;;;;;;5010866;23;20056;-96
2022/09/15 10:05:29;;;;;;;8.32;1.25;;;18.00;99.90;;;;;;4940617;29;20015;-96
2022/09/15 10:08:53;;;;;;;8.27;2.28;;;18.00;99.90;;;;;;4939223;29;20056;-96
2022/09/15 10:12:03;;;;;;;;;;;;;;;;;;;;;
2022/09/15 10:14:50;;;;;;;;;;;;;;;;;;;;;
2022/09/15 10:17:36;;;;;;;9.70;1.48;;;18.00;99.90;;;;;;4937770;29;20048;-96
2022/09/15 10:20:35;;;;;;;;;;;;;;;;;;;;;
2022/09/15 10:23:43;;;;;;;3.78;0.88;;;18.00;99.90;;;;;;4925946;29;20088;-96
2022/09/15 10:26:56;;;;;;;;;;;;;;;;;;;;;
2022/09/15 10:29:46;;;;;;;5.97;1.30;;;18.10;99.90;;;;;;4936217;29;20059;-96
2022/09/15 10:32:55;;;;;;;5.32;1.23;;;18.10;99.80;;;;;;4932855;29;20032;-96
2022/09/15 10:39:23;;;;;;;4.13;1.50;;;18.10;99.60;;;;;;4924360;29;20103;-96
2022/09/15 10:42:11;;;;;;;4.72;1.08;;;18.20;99.60;;;;;;4889761;29;20043;-96
2022/09/15 10:45:12;;;;;;;4.55;1.15;;;18.20;99.50;;;;;;4924525;29;20020;-96
2022/09/15 10:48:22;;;;;;;5.68;1.30;;;18.30;99.40;;;;;;4949767;23;20036;-96
2022/09/15 10:54:33;;;;;;;3.72;1.00;;;18.30;99.40;;;;;;4968556;23;20148;-93
2022/09/15 10:57:41;;;;;;;5.20;1.08;;;18.30;99.20;;;;;;4877056;29;20041;-95
2022/09/15 11:00:34;;;;;;;;;;;;;;;;;;;;;
2022/09/15 11:03:48;;;;;;;;;;;;;;;;;;;;;
2022/09/15 11:06:37;;;;;;;6.15;1.25;;;18.30;99.00;;;;;;4903346;29;20067;-96
2022/09/15 11:12:20;;;;;;;5.35;0.98;;;18.30;99.10;;;;;;5309671;23;20055;31
2022/09/15 11:14:58;;;;;;;3.20;0.70;;;18.40;99.00;;;;;;4881720;29;20120;-96
2022/09/15 11:17:56;;;;;;;3.53;0.85;;;18.40;99.00;;;;;;4884839;29;20029;-96
2022/09/15 11:21:01;;;;;;;3.75;1.15;;;18.40;98.80;;;;;;4867835;29;20021;-96
2022/09/15 11:24:11;;;;;;;4.13;0.68;;;18.40;98.30;;;;;;4884108;29;20058;-96
2022/09/15 11:27:07;;;;;;;6.07;1.17;;;18.50;98.30;;;;;;4867687;29;20042;-96
2022/09/15 11:29:54;;;;;;;3.65;0.80;;;18.40;98.20;;;;;;4869054;29;20021;-96
2022/09/15 11:32:48;;;;;;;4.13;0.90;;;18.40;97.90;;;;;;4869290;29;20033;-96
2022/09/15 11:36:05;;;;;;;5.28;1.00;;;18.40;97.60;;;;;;4868832;29;20046;-96
2022/09/15 11:39:38;;;;;;;4.13;0.88;;;18.50;97.50;;;;;;4851346;29;20037;-96
2022/09/15 11:42:50;;;;;;;;;;;;;;;;;;;;;
2022/09/15 11:46:01;;;;;;;5.22;1.13;;;18.50;97.60;;;;;;4808320;30;20051;-96
2022/09/15 11:59:29;;;;;;;5.72;1.05;;;18.80;96.90;;;;;;4953971;29;20042;-96
2022/09/15 12:02:32;;;;;;;3.20;1.60;;;18.80;97.00;;;;;;4941624;29;20032;-96
2022/09/15 12:08:43;;;;;;;;;;;;;;;;;;;;;
2022/09/15 12:11:26;;;;;;;4.68;1.13;;;19.00;97.00;;;;;;4953851;29;20052;-95
2022/09/15 12:13:54;;;;;;;7.72;1.15;;;19.10;96.90;;;;;;4935122;29;20110;-95
2022/09/15 12:16:37;;;;;;;4.95;1.00;;;19.20;96.50;;;;;;4946758;29;20039;-96
2022/09/15 12:19:49;;;;;;;4.20;1.10;;;19.20;96.10;;;;;;4918259;29;20034;-96
2022/09/15 12:22:57;;;;;;;5.05;1.10;;;19.30;95.40;;;;;;4874406;29;20478;-96
2022/09/15 12:25:32;;;;;;;4.57;1.20;;;19.40;95.30;;;;;;4859873;29;20192;-96
2022/09/15 12:28:20;;;;;;;4.45;1.33;;;19.50;95.30;;;;;;4925595;29;20124;-95
2022/09/15 12:31:28;;;;;;;;;;;;;;;;;;;;;
2022/09/15 12:37:08;;;;;;;4.07;1.15;;;19.60;94.00;;;;;;4945802;29;20104;-95
2022/09/15 12:40:17;;;;;;;3.63;1.00;;;19.60;94.00;;;;;;4936395;29;20032;-95
2022/09/15 12:43:21;;;;;;;4.60;1.42;;;19.60;93.80;;;;;;4929552;29;20036;-96
2022/09/15 12:45:59;;;;;;;6.55;2.55;;;19.60;93.70;;;;;;4951703;29;20480;-96
2022/09/15 12:48:43;;;;;;;4.68;1.15;;;19.60;93.50;;;;;;4937590;29;20091;-96
2022/09/15 12:51:23;;;;;;;5.72;1.45;;;19.60;93.50;;;;;;4937829;29;20050;-96
2022/09/15 12:54:27;;;;;;;;;;;;;;;;;;;;;
2022/09/15 13:00:29;;;;;;;4.95;1.10;;;19.60;93.90;;;;;;4944767;29;20075;-94
2022/09/15 13:03:14;;;;;;;11.95;1.52;;;19.70;94.00;;;;;;4929134;29;20012;-95
2022/09/15 13:05:54;;;;;;;4.95;0.77;;;19.80;93.90;;;;;;4959772;29;20020;-96
2022/09/15 13:08:23;;;;;;;6.55;1.35;;;19.90;92.90;;;;;;4939465;29;20028;-96
2022/09/15 13:11:25;;;;;;;;;;;;;;;;;;;;;
2022/09/15 13:14:06;;;;;;;5.82;0.95;;;20.00;91.70;;;;;;4951561;29;20051;-96
2022/09/15 13:17:01;;;;;;;4.65;1.13;;;20.10;91.60;;;;;;4930986;29;20023;-96
2022/09/15 13:19:40;;;;;;;5.13;1.40;;;20.20;90.90;;;;;;4948154;29;20031;-96
2022/09/15 13:22:29;;;;;;;4.63;1.13;;;20.20;90.70;;;;;;4931885;29;20036;-96
2022/09/15 13:25:16;;;;;;;7.10;0.90;;;20.30;90.30;;;;;;4936306;29;20082;-96
2022/09/15 13:27:48;;;;;;;5.10;0.95;;;20.40;90.10;;;;;;4937037;29;20090;-96
2022/09/15 13:30:28;;;;;;;3.33;0.95;;;20.40;90.10;;;;;;4941272;29;20023;-92
2022/09/15 13:43:20;;;;;;;5.15;1.05;;;20.70;87.50;;;;;;5099792;23;20248;31
2022/09/15 13:52:23;;;;;;;6.03;1.23;;;20.80;89.60;;;;;;4902529;29;20048;-96
2022/09/15 13:55:24;;;;;;;;;;;;;;;;;;;;;
2022/09/15 13:58:00;;;;;;;5.95;1.23;;;20.70;89.60;;;;;;4923419;29;20092;-95
2022/09/15 14:00:56;;;;;;;3.05;1.00;;;20.70;89.90;;;;;;4895680;29;20032;-96
2022/09/15 14:03:49;;;;;;;5.10;1.30;;;20.70;89.30;;;;;;4905133;29;20064;-96
2022/09/15 14:06:19;;;;;;;4.22;1.23;;;20.60;88.30;;;;;;4902914;29;20052;-93
2022/09/15 14:08:51;;;;;;;3.60;0.70;;;20.60;88.30;;;;;;4920237;29;20009;-96
2022/09/15 14:11:46;;;;;;;;;;;;;;;;;;;;;
2022/09/15 14:14:39;;;;;;;5.18;0.98;;;20.50;87.70;;;;;;4929970;29;20518;-96
2022/09/15 14:17:29;;;;;;;2.90;0.82;;;20.50;87.20;;;;;;4930159;29;20028;-96
2022/09/15 14:20:04;;;;;;;3.60;0.70;;;20.50;87.20;;;;;;4914280;29;20062;-96
2022/09/15 14:22:32;;;;;;;7.57;1.20;;;20.50;86.90;;;;;;4918392;29;20034;-96
2022/09/15 14:25:26;;;;;;;;;;;;;;;;;;;;;
2022/09/15 14:27:58;;;;;;;2.33;0.93;;;20.50;87.10;;;;;;4932279;29;20093;-96
2022/09/15 14:30:31;;;;;;;6.40;1.15;;;20.40;86.60;;;;;;4917445;29;20036;-96
2022/09/15 14:33:04;;;;;;;11.27;1.70;;;20.50;86.80;;;;;;4915566;29;20016;-96
2022/09/15 14:35:42;;;;;;;7.65;2.22;;;20.40;86.70;;;;;;4900906;29;20028;-96
2022/09/15 14:38:22;;;;;;;5.30;1.55;;;20.50;86.80;;;;;;4914509;29;20039;-96
2022/09/15 14:41:00;;;;;;;6.03;1.27;;;20.40;87.20;;;;;;4912543;29;20028;-96
2022/09/15 14:43:34;;;;;;;6.47;1.30;;;20.50;86.90;;;;;;4899125;29;20118;-96
2022/09/15 14:46:22;;;;;;;3.83;0.90;;;20.50;86.80;;;;;;4915979;29;20028;-96
2022/09/15 14:48:48;;;;;;;7.05;1.17;;;20.60;87.10;;;;;;4931998;29;20059;-96
2022/09/15 14:51:46;;;;;;;8.05;1.65;;;20.60;87.10;;;;;;4923351;29;20073;-96
2022/09/15 14:54:30;;;;;;;4.45;1.55;;;20.60;87.20;;;;;;4911519;29;20107;-96
2022/09/15 14:57:08;;;;;;;4.93;1.27;;;20.70;87.40;;;;;;4931664;29;20067;-96
2022/09/15 14:59:45;;;;;;;8.27;1.60;;;20.70;86.60;;;;;;4934375;29;20054;-95
2022/09/15 15:02:56;;;;;;;8.75;1.40;;;20.70;85.80;;;;;;4947687;29;20055;-95
2022/09/15 15:05:43;;;;;;;4.43;1.15;;;20.60;85.80;;;;;;4920865;29;20477;-95
2022/09/15 15:08:36;;;;;;;2.28;1.00;;;20.60;85.70;;;;;;4933454;29;20059;-95
2022/09/15 15:11:09;;;;;;;4.22;1.10;;;20.50;85.30;;;;;;4936942;29;20027;-96
2022/09/15 15:13:50;;;;;;;4.78;1.13;;;20.50;85.90;;;;;;4937017;29;20024;-96
2022/09/15 15:16:23;;;;;;;4.72;1.35;;;20.50;86.30;;;;;;4937278;29;20026;-96
2022/09/15 15:19:13;;;;;;;;;;;;;;;;;;;;;
2022/09/15 15:21:55;;;;;;;4.78;1.20;;;20.50;87.10;;;;;;4955292;29;20063;-96
2022/09/15 15:24:31;;;;;;;4.95;1.10;;;20.50;86.60;;;;;;4921834;29;20108;-96
2022/09/15 15:27:44;;;;;;;;;;;;;;;;;;;;;
2022/09/15 15:30:29;;;;;;;4.78;1.35;;;20.40;87.00;;;;;;4941028;29;20433;-95
2022/09/15 15:33:16;;;;;;;5.03;1.10;;;20.40;86.10;;;;;;4923793;29;20027;-94
2022/09/15 15:35:42;;;;;;;3.97;0.82;;;20.40;85.80;;;;;;4910577;29;20031;-95
2022/09/15 15:38:15;;;;;;;3.13;0.80;;;20.40;85.70;;;;;;4923608;29;20038;-95
2022/09/15 15:40:51;;;;;;;4.82;1.20;;;20.40;86.00;;;;;;4923694;29;20031;-94
2022/09/15 15:43:25;;;;;;;5.47;1.10;;;20.40;85.90;;;;;;4924052;29;20050;-95
2022/09/15 15:46:06;;;;;;;6.72;0.98;;;20.50;85.90;;;;;;4925039;29;20035;-94
2022/09/15 15:48:40;;;;;;;4.85;1.10;;;20.40;86.20;;;;;;4938921;29;20091;-94
2022/09/15 15:51:09;;;;;;;6.30;1.35;;;20.40;85.80;;;;;;4926048;29;20055;-94
2022/09/15 15:53:35;;;;;;;1.48;0.65;;;20.50;85.60;;;;;;4919302;29;20036;-95
2022/09/15 15:56:01;;;;;;;3.63;0.90;;;20.50;85.30;;;;;;4889032;29;20393;-95
2022/09/15 15:58:26;;;;;;;5.00;1.10;;;20.50;85.20;;;;;;4906171;29;20060;-94
2022/09/15 16:00:55;;;;;;;3.00;0.85;;;20.50;85.60;;;;;;4906897;29;20028;-94
2022/09/15 16:03:22;;;;;;;5.00;0.80;;;20.40;85.30;;;;;;4906819;29;20032;-96
2022/09/15 16:05:56;;;;;;;3.58;1.08;;;20.40;85.00;;;;;;4904270;29;20029;-95
2022/09/15 16:08:33;;;;;;;3.92;0.90;;;20.40;85.40;;;;;;4904784;29;20020;-94
2022/09/15 16:11:01;;;;;;;4.22;1.17;;;20.40;85.80;;;;;;4921751;29;20376;-95
2022/09/15 16:13:29;;;;;;;4.93;1.10;;;20.40;86.00;;;;;;4904296;29;20028;-94
2022/09/15 16:15:56;;;;;;;3.55;1.10;;;20.40;86.10;;;;;;4904373;29;20020;-95
2022/09/15 16:18:22;;;;;;;3.35;0.95;;;20.40;86.10;;;;;;4905379;29;20028;-94